Stallion Springs, California
Current Conditions -  °F | °C
As of 10:15 AM on Friday 19 Dec 2014 (Local Time) from KTSP Reporting Station
Clear Clear  
Wind Chill: 43°   Ceiling: Unl
Heat Index: 46°   Visibility: 10mi
Dew Point: 36°   Wind: 7mph
Humidity: 66%   Direction: 110°ESE
Pressure: 30.22"   Gusts: NA
Location:  35.1338°N, 118.552°W
Report Text: KTSP 191815Z AUTO 11006KT 10SM CLR 08/02 A3022 RMK AO2
Loading
Personal Weather Stations






























Interactive Weather Map New forecast layout! Learn more

10-Day Weather Forecast

Advertisements
Track Severe Weather on mobile